Time;durP1;ratioP1;P1;durP2;ratioP2;P2;SDS_P1;SDS_P2;PMS_P1;PMS_P2;Temp;Humidity;BMP_temperature;BMP_pressure;BME280_temperature;BME280_humidity;BME280_pressure;Samples;Min_cycle;Max_cycle;Signal;HPM_P1;HPM_P2
2022/06/30 00:00:22;;;;;;;7.55;4.37;;;;;;;29.31;37.90;99119.56;4494573;31;33900;-60
2022/06/30 00:02:49;;;;;;;5.97;4.05;;;;;;;29.27;38.33;99121.19;4496453;31;34998;-63
2022/06/30 00:05:17;;;;;;;7.43;4.03;;;;;;;29.29;38.35;99119.84;4489393;31;33461;-60
2022/06/30 00:07:44;;;;;;;6.70;4.18;;;;;;;29.30;38.74;99121.50;4490905;31;32623;-60
2022/06/30 00:10:12;;;;;;;5.62;3.70;;;;;;;29.24;38.76;99119.75;4493518;31;33578;-62
2022/06/30 00:12:40;;;;;;;8.50;4.45;;;;;;;29.37;38.40;99122.16;4496697;31;33850;-60
2022/06/30 00:15:08;;;;;;;8.63;3.83;;;;;;;29.33;38.04;99123.75;4496720;31;33788;-60
2022/06/30 00:17:36;;;;;;;6.82;3.53;;;;;;;29.27;38.07;99123.94;4497717;31;33472;-60
2022/06/30 00:20:04;;;;;;;7.68;4.30;;;;;;;29.22;38.35;99130.22;4496813;31;32474;-62
2022/06/30 00:22:32;;;;;;;6.78;3.87;;;;;;;29.19;38.29;99133.47;4495038;31;34371;-59
2022/06/30 00:25:00;;;;;;;7.45;4.43;;;;;;;29.16;38.64;99131.22;4498394;31;33673;-60
2022/06/30 00:27:28;;;;;;;6.70;4.00;;;;;;;28.98;38.68;99124.81;4484637;31;33329;-59
2022/06/30 00:29:55;;;;;;;8.57;4.20;;;;;;;28.86;38.60;99123.22;4487645;31;32105;-59
2022/06/30 00:32:23;;;;;;;8.88;4.10;;;;;;;28.84;38.38;99134.50;4488201;31;32781;-60
2022/06/30 00:34:50;;;;;;;7.68;3.95;;;;;;;28.89;38.09;99134.59;4487876;31;32715;-61
2022/06/30 00:37:18;;;;;;;6.82;3.40;;;;;;;28.71;38.38;99127.38;4493235;31;33247;-61
2022/06/30 00:39:46;;;;;;;9.13;4.68;;;;;;;28.66;38.39;99132.78;4493645;31;35293;-63
2022/06/30 00:42:13;;;;;;;6.78;3.85;;;;;;;28.61;38.73;99132.72;4486600;31;35352;-59
2022/06/30 00:44:41;;;;;;;6.97;4.37;;;;;;;28.49;39.01;99132.75;4486602;31;33874;-62
2022/06/30 00:47:10;;;;;;;7.93;3.92;;;;;;;28.55;38.74;99123.53;4488178;31;34521;-60
2022/06/30 00:49:38;;;;;;;9.85;4.18;;;;;;;28.52;39.05;99126.75;4487295;31;34297;-59
2022/06/30 00:52:10;;;;;;;6.93;3.85;;;;;;;28.52;39.45;99126.75;4486900;31;34895;-62
2022/06/30 00:54:38;;;;;;;9.65;4.55;;;;;;;28.43;39.03;99114.47;4487186;31;35460;-62
2022/06/30 00:57:07;;;;;;;8.25;4.20;;;;;;;28.61;38.55;99124.47;4474935;31;34516;-63
2022/06/30 00:59:37;;;;;;;7.82;4.25;;;;;;;28.54;38.74;99121.03;4483300;31;32478;-60
2022/06/30 01:02:05;;;;;;;8.27;4.05;;;;;;;28.40;38.91;99123.22;4490971;31;33884;-60
2022/06/30 01:04:34;;;;;;;6.25;4.28;;;;;;;28.40;38.80;99114.97;4487164;31;33838;-62
2022/06/30 01:07:03;;;;;;;9.90;4.80;;;;;;;28.26;39.29;99127.34;4484774;31;34900;-59
2022/06/30 01:15:03;;;;;;;9.18;4.32;;;;;;;27.71;40.11;99125.06;4482579;31;34544;-59
2022/06/30 01:17:31;;;;;;;8.93;4.78;;;;;;;27.78;39.08;99120.28;4479198;31;33057;-60
2022/06/30 01:20:00;;;;;;;8.48;4.53;;;;;;;27.93;38.91;99111.50;4492745;31;33885;-60
2022/06/30 01:22:28;;;;;;;8.30;4.00;;;;;;;27.95;38.77;99112.13;4498219;31;33410;-62
2022/06/30 01:24:55;;;;;;;7.30;4.22;;;;;;;27.95;38.84;99125.88;4499388;31;34118;-60
2022/06/30 01:27:23;;;;;;;6.30;3.70;;;;;;;27.96;38.87;99122.88;4488173;31;33468;-60
2022/06/30 01:29:51;;;;;;;6.20;3.83;;;;;;;28.02;38.84;99124.63;4485856;31;33581;-59
2022/06/30 01:32:19;;;;;;;8.35;4.15;;;;;;;28.05;38.89;99132.41;4486368;31;34092;-60
2022/06/30 01:34:46;;;;;;;6.07;4.18;;;;;;;28.04;39.14;99119.75;4484214;31;33211;-60
2022/06/30 01:37:14;;;;;;;7.40;3.67;;;;;;;28.12;39.44;99129.50;4485414;31;34216;-60
2022/06/30 01:39:42;;;;;;;9.90;4.47;;;;;;;27.45;40.67;99127.22;4490043;31;33630;-64
2022/06/30 01:42:10;;;;;;;7.90;4.30;;;;;;;27.56;40.58;99123.63;4494465;31;34026;-61
2022/06/30 01:44:37;;;;;;;8.93;4.22;;;;;;;27.59;40.42;99134.13;4490571;31;32885;-63
2022/06/30 01:47:05;;;;;;;6.32;4.35;;;;;;;27.41;40.42;99137.84;4484575;31;33585;-61
2022/06/30 01:49:33;;;;;;;6.80;4.03;;;;;;;27.58;40.05;99131.66;4489003;31;32703;-61
2022/06/30 01:52:00;;;;;;;12.50;4.18;;;;;;;27.57;39.97;99133.53;4485945;31;35859;-60
2022/06/30 01:54:28;;;;;;;8.93;4.80;;;;;;;27.37;40.44;99149.56;4494047;31;33214;-60
2022/06/30 01:56:55;;;;;;;10.85;4.05;;;;;;;27.39;40.49;99140.00;4493530;31;34347;-62
2022/06/30 01:59:23;;;;;;;8.88;4.20;;;;;;;27.33;40.45;99140.13;4495006;31;34722;-61
2022/06/30 02:01:51;;;;;;;10.93;4.15;;;;;;;27.47;39.79;99144.28;4489807;31;34209;-60
2022/06/30 02:07:05;;;;;;;5.85;3.83;;;;;;;27.35;41.26;99143.44;4493895;31;33087;-60
2022/06/30 02:09:33;;;;;;;6.10;3.85;;;;;;;27.61;39.57;99143.00;4493049;31;35414;-62
2022/06/30 02:14:46;;;;;;;8.50;4.40;;;;;;;27.80;39.53;99143.72;4487430;31;32467;-60
2022/06/30 02:17:14;;;;;;;6.75;4.32;;;;;;;27.56;39.30;99142.03;4489162;31;34396;-61
2022/06/30 02:19:42;;;;;;;10.88;4.37;;;;;;;27.55;39.22;99143.94;4494405;31;33544;-61
2022/06/30 02:22:09;;;;;;;7.72;4.35;;;;;;;27.55;38.99;99143.12;4495585;31;35734;-61
2022/06/30 02:24:37;;;;;;;6.87;4.25;;;;;;;27.56;39.26;99140.13;4494120;31;33696;-61
2022/06/30 02:27:04;;;;;;;8.73;4.47;;;;;;;27.54;39.69;99136.75;4490721;31;31840;-62
2022/06/30 02:29:33;;;;;;;6.15;3.75;;;;;;;27.35;40.22;99140.72;4492096;31;35864;-60
2022/06/30 02:32:00;;;;;;;6.60;4.40;;;;;;;27.40;40.24;99141.66;4496872;31;32926;-62
2022/06/30 02:34:28;;;;;;;8.45;4.12;;;;;;;27.52;39.85;99147.19;4494465;31;35594;-62
2022/06/30 02:36:56;;;;;;;7.60;4.60;;;;;;;27.62;39.60;99141.06;4488138;31;33346;-62
2022/06/30 02:39:23;;;;;;;7.87;4.32;;;;;;;27.40;40.19;99154.56;4495700;31;32419;-63
2022/06/30 02:41:51;;;;;;;9.00;4.45;;;;;;;27.25;40.79;99149.53;4491268;31;34285;-59
2022/06/30 02:44:19;;;;;;;9.43;4.37;;;;;;;27.44;40.57;99144.78;4496658;31;33823;-61
2022/06/30 02:46:50;;;;;;;7.10;4.50;;;;;;;27.32;40.26;99136.56;4486429;31;34555;-61
2022/06/30 02:49:19;;;;;;;5.55;3.92;;;;;;;27.40;40.53;99140.84;4492956;31;33438;-60
2022/06/30 02:51:47;;;;;;;6.10;3.83;;;;;;;27.06;41.44;99140.56;4486593;31;35263;-61
2022/06/30 02:54:14;;;;;;;7.53;3.90;;;;;;;27.14;40.52;99144.88;4496940;31;33367;-61
2022/06/30 02:56:42;;;;;;;8.15;4.28;;;;;;;27.09;40.92;99145.56;4494322;31;33101;-62
2022/06/30 02:59:11;;;;;;;8.77;4.47;;;;;;;27.27;40.60;99141.91;4495855;31;34178;-59
2022/06/30 03:01:38;;;;;;;10.02;4.40;;;;;;;27.16;40.70;99142.75;4492393;31;33823;-59
2022/06/30 03:04:06;;;;;;;7.07;4.20;;;;;;;27.17;40.28;99136.19;4496505;31;33491;-62
2022/06/30 03:06:34;;;;;;;6.93;4.07;;;;;;;27.16;40.53;99135.34;4493155;31;34927;-59
2022/06/30 03:09:02;;;;;;;7.05;4.00;;;;;;;27.08;40.37;99145.81;4492802;31;34077;-63
2022/06/30 03:11:30;;;;;;;7.45;3.95;;;;;;;27.15;40.00;99158.38;4495019;31;33998;-61
2022/06/30 03:14:18;;;;;;;8.63;4.80;;;;;;;27.15;39.85;99152.03;4495561;31;34403;-62
2022/06/30 03:16:47;;;;;;;6.50;4.00;;;;;;;27.10;39.80;99160.97;4480622;31;32951;-60
2022/06/30 03:19:15;;;;;;;6.60;4.25;;;;;;;27.14;39.58;99162.19;4481190;31;34543;-59
2022/06/30 03:21:42;;;;;;;8.70;4.53;;;;;;;27.12;39.78;99164.31;4481324;31;34141;-60
2022/06/30 03:24:10;;;;;;;7.30;4.47;;;;;;;27.10;39.96;99165.63;4493149;31;34013;-61
2022/06/30 03:26:37;;;;;;;7.22;3.97;;;;;;;27.10;40.41;99162.91;4495951;31;34584;-60
2022/06/30 03:29:05;;;;;;;7.03;3.53;;;;;;;27.13;40.19;99165.16;4496724;31;33695;-61
2022/06/30 03:31:33;;;;;;;7.47;3.90;;;;;;;27.03;40.28;99173.13;4497429;31;33906;-62
2022/06/30 03:34:01;;;;;;;6.50;3.62;;;;;;;27.13;40.48;99174.28;4493547;31;32593;-63
2022/06/30 03:36:28;;;;;;;6.50;3.80;;;;;;;27.17;40.45;99180.97;4496449;31;33364;-61
2022/06/30 03:38:56;;;;;;;7.90;3.70;;;;;;;27.28;40.10;99183.94;4493086;31;33707;-62
2022/06/30 03:41:23;;;;;;;6.50;3.90;;;;;;;27.12;40.08;99178.03;4490706;31;34794;-60
2022/06/30 03:43:51;;;;;;;6.95;4.03;;;;;;;27.11;40.41;99178.28;4495739;31;35041;-60
2022/06/30 03:46:19;;;;;;;7.90;4.43;;;;;;;27.06;40.63;99179.00;4495356;31;31807;-59
2022/06/30 03:48:46;;;;;;;7.15;4.43;;;;;;;27.06;40.80;99186.37;4497658;31;32398;-61
2022/06/30 03:51:14;;;;;;;7.00;4.35;;;;;;;27.10;40.90;99182.12;4495828;31;33751;-62
2022/06/30 03:53:42;;;;;;;6.65;4.25;;;;;;;27.21;40.45;99186.81;4496218;31;32646;-59
2022/06/30 03:56:09;;;;;;;7.40;4.30;;;;;;;27.26;40.76;99195.19;4491915;31;33453;-61
2022/06/30 03:58:37;;;;;;;6.37;4.12;;;;;;;27.26;40.46;99197.09;4490694;31;33593;-62
2022/06/30 04:01:04;;;;;;;6.10;4.00;;;;;;;27.30;40.24;99190.88;4494824;31;33903;-62
2022/06/30 04:03:32;;;;;;;6.70;4.15;;;;;;;27.21;40.64;99188.72;4495512;31;34834;-62
2022/06/30 04:06:00;;;;;;;7.65;4.47;;;;;;;27.18;39.94;99198.28;4495148;31;33162;-62
2022/06/30 04:08:27;;;;;;;13.93;5.10;;;;;;;27.24;40.23;99197.31;4495695;31;32584;-59
2022/06/30 04:10:55;;;;;;;9.13;4.37;;;;;;;27.40;39.86;99195.78;4495127;31;35147;-60
2022/06/30 04:13:22;;;;;;;6.95;4.07;;;;;;;27.40;39.99;99201.28;4492041;31;34134;-61
2022/06/30 04:15:50;;;;;;;9.75;4.20;;;;;;;27.58;40.10;99200.37;4496486;31;31942;-60
2022/06/30 04:18:18;;;;;;;8.98;4.00;;;;;;;27.54;40.42;99196.41;4495112;31;33437;-60
2022/06/30 04:20:45;;;;;;;7.62;4.20;;;;;;;27.76;40.44;99188.38;4492391;31;32853;-61
2022/06/30 04:23:12;;;;;;;9.90;4.50;;;;;;;27.85;41.03;99184.22;4495575;31;34677;-60
2022/06/30 04:25:41;;;;;;;7.78;4.25;;;;;;;27.87;41.46;99190.34;4491243;31;34336;-60
2022/06/30 04:28:08;;;;;;;8.70;4.47;;;;;;;27.89;41.57;99184.59;4495453;31;34526;-63
2022/06/30 04:33:22;;;;;;;9.52;4.43;;;;;;;28.36;40.93;99190.00;4497319;31;33897;-60
2022/06/30 04:35:50;;;;;;;7.97;4.20;;;;;;;28.40;40.58;99194.78;4496817;31;33190;-61
2022/06/30 04:38:17;;;;;;;8.52;4.72;;;;;;;28.20;41.81;99195.16;4493628;31;33943;-63
2022/06/30 04:43:31;;;;;;;6.87;4.15;;;;;;;28.38;41.06;99204.31;4493161;31;34600;-63
2022/06/30 04:45:59;;;;;;;8.40;5.45;;;;;;;28.84;40.26;99200.59;4494614;31;33328;-63
2022/06/30 04:48:26;;;;;;;8.50;4.57;;;;;;;28.90;38.99;99193.28;4493626;31;33656;-60
2022/06/30 04:50:54;;;;;;;11.48;4.57;;;;;;;28.84;40.26;99195.09;4495554;31;35023;-62
2022/06/30 04:53:22;;;;;;;8.07;5.15;;;;;;;28.98;40.06;99179.91;4495188;31;33474;-61
2022/06/30 04:55:49;;;;;;;8.25;4.40;;;;;;;29.02;39.18;99192.16;4494800;31;33186;-60
2022/06/30 04:58:17;;;;;;;10.57;4.90;;;;;;;28.81;39.47;99190.06;4494940;31;34600;-64
2022/06/30 05:00:45;;;;;;;7.35;4.25;;;;;;;29.05;39.49;99187.22;4495880;31;34856;-63
2022/06/30 05:03:12;;;;;;;8.00;4.68;;;;;;;29.21;39.53;99192.75;4496064;31;34218;-60
2022/06/30 05:05:40;;;;;;;9.48;5.12;;;;;;;29.12;39.88;99188.75;4492806;31;34351;-62
2022/06/30 05:08:07;;;;;;;8.65;5.20;;;;;;;29.20;38.64;99196.56;4493722;31;34708;-60
2022/06/30 05:10:35;;;;;;;6.43;4.40;;;;;;;29.37;39.27;99181.97;4493628;31;34700;-64
2022/06/30 05:13:03;;;;;;;7.90;4.55;;;;;;;29.25;38.59;99185.66;4496606;31;34665;-62
2022/06/30 05:15:31;;;;;;;12.00;4.85;;;;;;;29.38;39.04;99186.41;4498176;31;34229;-64
2022/06/30 05:17:58;;;;;;;8.43;4.80;;;;;;;29.25;40.05;99182.06;4496996;31;34720;-61
2022/06/30 05:20:26;;;;;;;9.40;4.75;;;;;;;29.69;38.78;99191.31;4495595;31;35143;-63
2022/06/30 05:22:54;;;;;;;9.48;4.80;;;;;;;29.62;38.74;99195.34;4494719;31;32643;-64
2022/06/30 05:28:08;;;;;;;7.25;4.70;;;;;;;29.96;37.25;99198.06;4495438;31;33365;-64
2022/06/30 05:30:35;;;;;;;7.05;4.35;;;;;;;30.00;36.54;99193.69;4496902;31;32934;-60
2022/06/30 05:33:03;;;;;;;7.25;4.95;;;;;;;29.78;37.38;99197.25;4495804;31;33581;-60
2022/06/30 05:35:31;;;;;;;8.13;4.18;;;;;;;29.92;36.90;99192.19;4492555;31;34354;-61
2022/06/30 05:37:58;;;;;;;9.90;4.60;;;;;;;30.07;36.95;99197.09;4493609;31;34402;-64
2022/06/30 05:40:27;;;;;;;8.32;4.05;;;;;;;30.17;36.42;99197.22;4500358;31;33992;-63
2022/06/30 05:42:55;;;;;;;7.45;4.50;;;;;;;29.89;37.07;99195.50;4498627;31;34776;-60
2022/06/30 05:45:22;;;;;;;10.85;4.30;;;;;;;30.28;36.44;99193.56;4499763;31;33025;-60
2022/06/30 05:47:51;;;;;;;7.12;3.95;;;;;;;30.32;35.11;99196.62;4498493;31;33947;-60
2022/06/30 05:50:20;;;;;;;9.10;4.37;;;;;;;30.03;34.99;99193.19;4498638;31;32591;-65
2022/06/30 05:52:51;;;;;;;10.57;3.90;;;;;;;30.33;34.69;99201.88;4497061;31;32779;-60
2022/06/30 05:55:19;;;;;;;7.78;3.60;;;;;;;30.35;33.80;99193.34;4489397;31;35159;-60
2022/06/30 05:57:55;;;;;;;6.28;3.62;;;;;;;30.34;33.70;99187.00;4496156;31;32414;-61
2022/06/30 06:00:24;;;;;;;9.57;3.50;;;;;;;30.62;32.21;99198.91;4499487;31;34064;-63
2022/06/30 06:02:53;;;;;;;7.50;4.03;;;;;;;30.08;33.47;99196.84;4497506;31;33710;-63
2022/06/30 06:05:21;;;;;;;6.78;3.75;;;;;;;30.59;32.16;99193.91;4494298;31;33750;-64
2022/06/30 06:07:49;;;;;;;7.03;4.30;;;;;;;30.69;31.96;99194.03;4500337;31;34834;-62
2022/06/30 06:10:18;;;;;;;7.32;3.90;;;;;;;30.79;31.51;99196.09;4497429;31;32525;-60
2022/06/30 06:12:45;;;;;;;11.90;3.85;;;;;;;30.97;31.64;99198.47;4490799;31;32717;-61
2022/06/30 06:15:14;;;;;;;6.35;3.75;;;;;;;30.91;32.03;99194.00;4496892;31;33112;-61
2022/06/30 06:17:47;;;;;;;7.62;3.47;;;;;;;30.62;31.95;99198.91;4496932;31;34804;-60
2022/06/30 06:20:17;;;;;;;6.18;3.12;;;;;;;30.84;31.61;99196.97;4499742;31;35042;-60
2022/06/30 06:22:45;;;;;;;8.98;3.92;;;;;;;30.38;31.30;99192.84;4494753;31;32266;-64
2022/06/30 06:25:14;;;;;;;7.93;3.90;;;;;;;30.86;30.57;99200.31;4498637;31;34550;-62
2022/06/30 06:27:42;;;;;;;5.12;3.17;;;;;;;31.07;29.18;99194.97;4495123;31;35025;-63
2022/06/30 06:30:10;;;;;;;5.55;3.33;;;;;;;31.16;28.59;99200.87;4499236;31;33866;-62
2022/06/30 06:32:38;;;;;;;5.85;3.53;;;;;;;30.77;29.45;99199.09;4499357;31;32540;-64
2022/06/30 06:35:06;;;;;;;5.87;3.55;;;;;;;31.25;28.50;99205.66;4497024;31;33082;-60
2022/06/30 06:37:38;;;;;;;7.32;3.78;;;;;;;31.16;28.80;99196.16;4498182;31;33853;-63
2022/06/30 06:40:06;;;;;;;7.20;3.47;;;;;;;31.41;28.17;99194.75;4500221;31;33944;-61
2022/06/30 06:42:34;;;;;;;6.43;3.40;;;;;;;31.10;28.66;99192.50;4495642;31;33935;-63
2022/06/30 06:45:10;;;;;;;5.90;3.30;;;;;;;31.19;29.22;99192.87;4497208;31;34219;-63
2022/06/30 06:47:38;;;;;;;8.25;3.67;;;;;;;30.95;28.78;99191.53;4489541;31;34715;-60
2022/06/30 06:50:07;;;;;;;6.40;3.03;;;;;;;31.38;29.32;99195.28;4494578;31;34020;-63
2022/06/30 06:52:35;;;;;;;9.82;3.03;;;;;;;31.43;29.07;99196.16;4495597;31;33659;-61
2022/06/30 06:55:03;;;;;;;5.55;3.78;;;;;;;31.46;28.21;99198.41;4497314;31;33467;-60
2022/06/30 06:57:34;;;;;;;8.77;3.70;;;;;;;31.26;28.85;99187.94;4499263;31;32776;-63
2022/06/30 07:00:04;;;;;;;5.32;3.08;;;;;;;31.63;28.22;99183.59;4497359;31;34973;-63
2022/06/30 07:02:32;;;;;;;5.10;3.12;;;;;;;31.59;28.41;99185.19;4488715;31;33834;-61
2022/06/30 07:05:00;;;;;;;8.52;4.25;;;;;;;31.82;28.12;99186.75;4494142;31;32141;-63
2022/06/30 07:07:37;;;;;;;8.35;3.65;;;;;;;31.59;28.09;99188.81;4499602;31;35960;-63
2022/06/30 07:10:06;;;;;;;6.87;3.53;;;;;;;31.55;29.22;99182.94;4490338;31;35137;-65
2022/06/30 07:12:34;;;;;;;7.68;3.80;;;;;;;31.88;27.56;99188.41;4491481;31;34301;-60
2022/06/30 07:15:02;;;;;;;5.87;3.50;;;;;;;31.59;29.70;99191.59;4494831;31;34456;-61
2022/06/30 07:17:36;;;;;;;5.03;3.05;;;;;;;31.93;28.52;99182.97;4496272;31;34703;-61
2022/06/30 07:20:05;;;;;;;6.90;3.62;;;;;;;31.88;27.99;99186.53;4494966;31;34007;-60
2022/06/30 07:22:32;;;;;;;8.35;3.47;;;;;;;32.05;27.73;99185.53;4495895;31;33069;-59
2022/06/30 07:25:01;;;;;;;8.63;3.40;;;;;;;31.92;27.78;99186.84;4500455;31;34434;-59
2022/06/30 07:27:32;;;;;;;5.78;3.53;;;;;;;31.83;27.75;99180.94;4497590;31;33735;-61
2022/06/30 07:30:00;;;;;;;7.57;3.92;;;;;;;31.97;28.15;99173.00;4497990;31;33710;-63
2022/06/30 07:32:28;;;;;;;7.37;3.87;;;;;;;31.95;27.83;99178.00;4487021;31;280416;-60
2022/06/30 07:34:56;;;;;;;8.30;3.95;;;;;;;31.98;28.63;99170.00;4485356;31;33183;-61
2022/06/30 07:37:23;;;;;;;7.87;3.60;;;;;;;32.05;28.07;99178.03;4489155;31;33707;-61
2022/06/30 07:39:51;;;;;;;6.95;3.67;;;;;;;32.10;27.59;99172.50;4500281;31;34894;-59
2022/06/30 07:42:19;;;;;;;6.55;3.97;;;;;;;31.94;27.82;99168.88;4498803;31;33571;-59
2022/06/30 07:44:46;;;;;;;7.60;3.90;;;;;;;31.96;28.58;99166.66;4498548;31;34343;-63
2022/06/30 07:47:14;;;;;;;8.07;3.58;;;;;;;31.66;27.90;99171.97;4497375;31;34615;-64
2022/06/30 07:49:42;;;;;;;6.18;3.50;;;;;;;31.91;28.15;99163.00;4499093;31;32421;-61
2022/06/30 07:52:10;;;;;;;6.10;3.45;;;;;;;32.32;27.06;99164.03;4489349;31;34924;-59
2022/06/30 07:54:42;;;;;;;7.85;3.45;;;;;;;32.40;26.75;99160.75;4499124;31;34197;-59
2022/06/30 07:57:09;;;;;;;6.65;3.67;;;;;;;32.19;28.37;99157.06;4499680;31;33642;-58
2022/06/30 07:59:57;;;;;;;7.68;3.70;;;;;;;32.52;27.58;99166.09;4497325;31;32817;-61
2022/06/30 08:02:25;;;;;;;8.35;3.75;;;;;;;32.72;27.99;99165.28;4496494;31;34667;-62
2022/06/30 08:04:53;;;;;;;6.97;3.50;;;;;;;32.28;27.58;99159.31;4495331;31;33199;-61
2022/06/30 08:07:20;;;;;;;8.38;3.40;;;;;;;32.54;27.27;99160.25;4494258;31;33922;-61
2022/06/30 08:09:48;;;;;;;8.18;3.25;;;;;;;32.81;26.14;99160.03;4491508;31;32767;-61
2022/06/30 08:12:16;;;;;;;5.68;3.20;;;;;;;32.91;26.23;99163.66;4496317;31;34967;-60
2022/06/30 08:14:43;;;;;;;6.43;3.40;;;;;;;32.85;26.03;99161.97;4496899;31;34307;-59
2022/06/30 08:17:11;;;;;;;8.40;3.28;;;;;;;33.17;26.34;99160.94;4499377;31;34243;-59
2022/06/30 08:19:41;;;;;;;10.40;3.60;;;;;;;32.90;26.44;99159.19;4499405;31;34032;-60
2022/06/30 08:22:08;;;;;;;5.45;3.45;;;;;;;33.14;26.52;99165.09;4490057;31;34024;-58
2022/06/30 08:24:38;;;;;;;5.95;3.20;;;;;;;33.27;25.60;99151.78;4496278;31;33091;-62
2022/06/30 08:27:06;;;;;;;6.05;3.75;;;;;;;33.29;26.17;99155.09;4496323;31;32472;-61
2022/06/30 08:29:34;;;;;;;6.80;3.20;;;;;;;33.26;27.72;99155.66;4498411;31;34006;-60
2022/06/30 08:32:02;;;;;;;7.10;3.35;;;;;;;33.17;27.43;99159.00;4499180;31;33834;-58
2022/06/30 08:34:31;;;;;;;9.05;3.97;;;;;;;33.47;26.68;99145.38;4489966;31;33360;-61
2022/06/30 08:36:58;;;;;;;7.68;3.67;;;;;;;33.47;27.36;99143.44;4498358;31;33906;-59
2022/06/30 08:42:15;;;;;;;5.55;3.53;;;;;;;33.62;26.21;99148.16;4496931;31;32903;-60
2022/06/30 08:44:43;;;;;;;7.90;3.65;;;;;;;33.37;25.63;99138.72;4493442;31;34457;-59
2022/06/30 08:47:12;;;;;;;8.27;3.35;;;;;;;33.13;26.21;99138.47;4497461;31;34031;-62
2022/06/30 08:49:40;;;;;;;6.82;3.20;;;;;;;33.37;26.37;99137.91;4498355;31;34144;-62
2022/06/30 08:52:07;;;;;;;10.60;3.20;;;;;;;32.93;25.64;99132.87;4490554;31;33671;-63
2022/06/30 08:54:38;;;;;;;8.07;3.15;;;;;;;33.39;25.46;99133.75;4485040;31;33930;-58
2022/06/30 08:57:06;;;;;;;7.50;2.97;;;;;;;33.49;24.17;99132.94;4496911;31;33304;-58
2022/06/30 08:59:35;;;;;;;10.20;3.87;;;;;;;33.78;23.68;99135.09;4486846;31;32720;-61
2022/06/30 09:02:05;;;;;;;6.82;3.37;;;;;;;33.89;24.00;99141.44;4490966;31;33891;-59
2022/06/30 09:04:33;;;;;;;5.80;3.10;;;;;;;33.75;23.09;99138.41;4483463;32;33301;-59
2022/06/30 09:07:00;;;;;;;10.10;3.17;;;;;;;33.58;24.42;99145.13;4496657;31;33902;-63
2022/06/30 09:09:28;;;;;;;5.37;2.62;;;;;;;33.81;24.15;99137.28;4494743;31;34009;-59
2022/06/30 09:11:57;;;;;;;4.57;2.35;;;;;;;34.01;23.48;99131.69;4492622;31;33944;-59
2022/06/30 09:14:35;;;;;;;8.05;3.53;;;;;;;33.94;22.74;99133.91;4498735;31;32109;-61
2022/06/30 09:17:05;;;;;;;7.47;3.08;;;;;;;33.75;23.64;99136.47;4496462;31;33526;-59
2022/06/30 09:19:35;;;;;;;7.12;3.35;;;;;;;34.00;22.84;99140.28;4495971;31;32616;-62
2022/06/30 09:22:14;;;;;;;5.93;3.47;;;;;;;34.17;23.61;99139.97;4490838;31;33713;-62
2022/06/30 09:24:42;;;;;;;8.25;3.15;;;;;;;34.40;23.56;99135.69;4498866;31;33077;-60
2022/06/30 09:27:21;;;;;;;7.87;3.60;;;;;;;34.13;23.96;99144.44;4493336;31;33793;-62
2022/06/30 09:30:04;;;;;;;6.78;3.10;;;;;;;34.02;23.63;99150.00;4488541;31;34082;-62
2022/06/30 09:33:05;;;;;;;5.93;3.20;;;;;;;33.95;23.59;99141.13;4498033;31;32749;-60
2022/06/30 09:35:33;;;;;;;8.73;2.92;;;;;;;34.41;23.54;99135.38;4493578;31;33450;-59
2022/06/30 09:38:03;;;;;;;7.57;2.90;;;;;;;34.73;21.71;99131.31;4485102;31;33452;-62
2022/06/30 09:40:33;;;;;;;7.47;3.30;;;;;;;34.95;20.96;99131.72;4496057;31;34495;-61
2022/06/30 09:43:03;;;;;;;6.80;2.60;;;;;;;34.91;20.67;99129.81;4497125;31;33773;-63
2022/06/30 09:45:33;;;;;;;8.25;3.12;;;;;;;35.12;21.16;99127.72;4496744;31;33082;-58
2022/06/30 09:48:01;;;;;;;6.40;3.00;;;;;;;35.22;21.39;99120.12;4492192;31;34014;-59
2022/06/30 09:50:29;;;;;;;9.00;2.95;;;;;;;35.43;20.27;99117.16;4491576;31;34099;-59
2022/06/30 09:53:14;;;;;;;7.00;2.78;;;;;;;35.69;20.46;99118.56;4498338;31;32800;-59
2022/06/30 09:55:44;;;;;;;6.40;2.92;;;;;;;35.84;20.84;99112.00;4497496;31;32323;-60
2022/06/30 09:58:30;;;;;;;6.78;2.72;;;;;;;35.55;21.42;99109.25;4498186;31;34690;-58
2022/06/30 10:00:59;;;;;;;6.95;3.37;;;;;;;35.90;21.24;99110.81;4498769;31;32942;-61
2022/06/30 10:03:34;;;;;;;5.32;2.70;;;;;;;35.41;21.49;99097.97;4494144;31;35282;-59
2022/06/30 10:06:10;;;;;;;5.12;2.65;;;;;;;35.59;21.52;99109.50;4501237;31;32310;-62
2022/06/30 10:08:39;;;;;;;7.15;2.90;;;;;;;35.75;20.85;99104.59;4493380;31;31554;-64
2022/06/30 10:11:07;;;;;;;6.43;2.90;;;;;;;36.08;20.64;99092.50;4500024;31;35308;-62
2022/06/30 10:13:37;;;;;;;7.18;2.75;;;;;;;36.09;20.96;99101.72;4499017;31;35108;-63
2022/06/30 10:16:06;;;;;;;7.53;2.78;;;;;;;36.26;20.04;99095.63;4499703;31;33207;-59
2022/06/30 10:18:38;;;;;;;6.97;2.80;;;;;;;35.88;21.09;99095.53;4500132;31;34670;-59
2022/06/30 10:21:08;;;;;;;6.15;2.80;;;;;;;36.27;20.14;99086.94;4490469;31;32429;-59
2022/06/30 10:23:36;;;;;;;13.85;3.28;;;;;;;36.21;19.63;99090.09;4490282;31;34135;-59
2022/06/30 10:26:04;;;;;;;4.78;2.67;;;;;;;36.17;19.89;99094.63;4501108;31;34538;-64
2022/06/30 10:28:32;;;;;;;9.02;2.95;;;;;;;36.36;19.91;99087.94;4500942;31;32492;-59
2022/06/30 10:31:07;;;;;;;6.25;2.72;;;;;;;36.51;19.05;99084.13;4500194;31;34078;-60
2022/06/30 10:34:02;;;;;;;5.72;2.75;;;;;;;36.22;19.35;99103.75;4491280;31;34844;-59
2022/06/30 10:36:52;;;;;;;8.25;2.62;;;;;;;35.96;19.59;99085.66;4490407;31;32055;-59
2022/06/30 10:40:01;;;;;;;3.78;2.03;;;;;;;36.56;18.76;99089.62;4481610;31;32170;-62
2022/06/30 10:42:46;;;;;;;4.85;2.17;;;;;;;36.46;19.08;99084.16;4496498;31;32805;-61
2022/06/30 10:45:27;;;;;;;4.95;2.33;;;;;;;36.46;18.31;99083.34;4497486;31;33737;-59
2022/06/30 10:48:02;;;;;;;8.75;2.20;;;;;;;36.83;18.13;99071.37;4499687;31;32327;-60
2022/06/30 10:50:36;;;;;;;4.97;2.65;;;;;;;36.74;18.11;99078.78;4498603;31;34122;-60
2022/06/30 10:53:09;;;;;;;6.03;2.58;;;;;;;36.46;18.50;99084.16;4500045;31;33931;-59
2022/06/30 10:55:47;;;;;;;6.43;2.40;;;;;;;36.65;18.90;99088.94;4494521;31;32575;-62
2022/06/30 10:58:15;;;;;;;5.53;2.55;;;;;;;36.32;18.27;99072.97;4497720;31;34863;-59
2022/06/30 11:00:47;;;;;;;3.95;2.20;;;;;;;36.47;18.34;99076.63;4498148;31;34344;-59
2022/06/30 11:03:29;;;;;;;4.60;2.15;;;;;;;36.67;19.02;99073.59;4498582;31;34296;-63
2022/06/30 11:05:59;;;;;;;5.85;2.53;;;;;;;36.69;17.53;99070.47;4485262;31;32801;-61
2022/06/30 11:08:36;;;;;;;5.55;2.28;;;;;;;37.34;17.18;99062.13;4498204;31;34595;-60
2022/06/30 11:11:28;;;;;;;5.07;1.90;;;;;;;37.07;17.40;99060.09;4499096;31;35060;-61
2022/06/30 11:13:56;;;;;;;5.28;2.12;;;;;;;36.97;17.37;99063.87;4486135;31;33949;-62
2022/06/30 11:16:24;;;;;;;5.43;2.20;;;;;;;36.85;17.45;99069.09;4496254;31;33900;-59
2022/06/30 11:18:52;;;;;;;6.93;2.50;;;;;;;36.95;17.58;99055.00;4484141;31;31879;-58
2022/06/30 11:21:20;;;;;;;4.82;2.25;;;;;;;36.90;17.13;99059.81;4499964;31;33730;-65
2022/06/30 11:23:49;;;;;;;4.82;2.45;;;;;;;36.81;17.55;99051.31;4499991;31;33791;-64
2022/06/30 11:29:12;;;;;;;5.68;2.45;;;;;;;37.20;17.00;99048.13;4497705;31;33503;-62
2022/06/30 11:31:41;;;;;;;5.25;2.22;;;;;;;37.32;17.29;99050.44;4496474;31;33880;-64
2022/06/30 11:34:18;;;;;;;5.10;2.58;;;;;;;37.09;17.82;99046.69;4490299;31;32782;-60
2022/06/30 11:36:46;;;;;;;4.75;2.10;;;;;;;37.21;17.87;99032.22;4490905;31;32402;-64
2022/06/30 11:39:18;;;;;;;6.40;2.22;;;;;;;37.49;17.72;99041.47;4494508;31;34411;-59
2022/06/30 11:41:55;;;;;;;5.35;2.12;;;;;;;37.00;18.26;99024.25;4498738;31;35041;-59
2022/06/30 11:44:22;;;;;;;8.75;2.37;;;;;;;36.77;17.87;99039.13;4499012;31;35100;-59
2022/06/30 11:47:01;;;;;;;6.07;1.90;;;;;;;36.93;17.15;99029.38;4493679;31;34052;-59
2022/06/30 11:49:45;;;;;;;6.15;2.17;;;;;;;36.94;16.78;99024.63;4487806;31;34436;-60
2022/06/30 11:52:29;;;;;;;7.93;2.55;;;;;;;37.31;15.99;99018.09;4490453;31;32487;-59
2022/06/30 11:55:03;;;;;;;5.20;2.30;;;;;;;37.17;16.69;99023.66;4497225;31;35469;-62
2022/06/30 11:57:36;;;;;;;4.32;2.20;;;;;;;37.13;17.15;99019.81;4495817;31;34913;-61
2022/06/30 12:00:08;;;;;;;5.53;2.50;;;;;;;37.39;16.58;99016.53;4483386;31;32939;-59
2022/06/30 12:02:37;;;;;;;4.80;2.30;;;;;;;37.59;16.72;99018.94;4495485;31;33700;-61
2022/06/30 12:05:10;;;;;;;3.78;2.15;;;;;;;37.51;16.14;99022.47;4491295;31;33350;-60
2022/06/30 12:07:38;;;;;;;6.87;2.40;;;;;;;37.03;16.42;99011.66;4487516;31;33936;-61
2022/06/30 12:10:09;;;;;;;3.95;2.00;;;;;;;36.97;16.83;99012.84;4499756;31;34499;-59